Time;durP1;ratioP1;P1;durP2;ratioP2;P2;SDS_P1;SDS_P2;PMS_P1;PMS_P2;Temp;Humidity;BMP_temperature;BMP_pressure;BME280_temperature;BME280_humidity;BME280_pressure;Samples;Min_cycle;Max_cycle;Signal;HPM_P1;HPM_P2
2021/07/21 00:00:15;;;;;;;1999.90;999.90;;;7.90;99.90;;;;;;5092977;28;20495;-44
2021/07/21 00:02:41;;;;;;;1999.90;999.90;;;7.80;99.90;;;;;;5092935;28;20241;-43
2021/07/21 00:05:11;;;;;;;1999.90;999.90;;;7.90;99.90;;;;;;5092863;28;20235;-43
2021/07/21 00:07:39;;;;;;;1999.90;999.90;;;7.90;99.90;;;;;;5092716;28;20245;-44
2021/07/21 00:10:11;;;;;;;1999.90;999.90;;;7.90;99.90;;;;;;5092860;28;20257;-44
2021/07/21 00:15:27;;;;;;;1999.90;999.90;;;7.90;99.90;;;;;;5093016;28;20283;-44
2021/07/21 00:18:03;;;;;;;1999.90;999.90;;;7.90;99.90;;;;;;5092833;28;20163;-44
2021/07/21 00:20:31;;;;;;;1999.90;999.90;;;7.80;99.90;;;;;;5093040;28;20195;-43
2021/07/21 00:22:59;;;;;;;1999.90;999.90;;;7.90;99.90;;;;;;5092656;28;20172;-44
2021/07/21 00:25:26;;;;;;;1999.90;999.90;;;7.90;99.90;;;;;;5095588;28;20171;-44
2021/07/21 00:27:53;;;;;;;1999.90;999.90;;;7.90;99.90;;;;;;5096664;28;20191;-43
2021/07/21 00:30:21;;;;;;;1999.90;999.90;;;7.90;99.90;;;;;;5096641;28;20195;-44
2021/07/21 00:32:49;;;;;;;1999.90;999.90;;;7.90;99.90;;;;;;5096486;28;20160;-43
2021/07/21 00:35:18;;;;;;;1999.90;999.90;;;7.90;99.90;;;;;;5096514;28;20175;-43
2021/07/21 00:37:45;;;;;;;1999.90;999.90;;;7.90;99.90;;;;;;5096498;28;20171;-43
2021/07/21 00:40:15;;;;;;;1999.90;999.90;;;8.00;99.90;;;;;;5096392;28;20176;-43
2021/07/21 00:42:43;;;;;;;1999.90;999.90;;;8.00;99.90;;;;;;5096315;28;20179;-44
2021/07/21 00:45:10;;;;;;;1999.90;999.90;;;7.90;99.90;;;;;;5096192;28;20317;-44
2021/07/21 00:47:39;;;;;;;1999.90;999.90;;;8.00;99.90;;;;;;5096232;28;20200;-43
2021/07/21 00:50:09;;;;;;;1999.90;999.90;;;8.00;99.90;;;;;;5096229;28;20186;-44
2021/07/21 00:52:40;;;;;;;1999.90;999.90;;;8.00;99.90;;;;;;5096226;28;20617;-43
2021/07/21 00:55:09;;;;;;;1999.90;999.90;;;8.00;99.90;;;;;;5096296;28;20193;-43
2021/07/21 00:57:37;;;;;;;1999.90;999.90;;;8.00;99.90;;;;;;5096124;28;20170;-44
2021/07/21 01:00:07;;;;;;;1999.90;999.90;;;7.90;99.90;;;;;;5096031;28;20258;-45
2021/07/21 01:02:34;;;;;;;1999.90;999.90;;;7.90;99.90;;;;;;5096291;28;20163;-43
2021/07/21 01:05:03;;;;;;;1999.90;999.90;;;7.90;99.90;;;;;;5095900;28;20637;-43
2021/07/21 01:07:30;;;;;;;1999.90;999.90;;;7.90;99.90;;;;;;5095797;28;20163;-44
2021/07/21 01:09:57;;;;;;;1999.90;999.90;;;7.90;99.90;;;;;;5095990;28;20256;-44
2021/07/21 01:12:51;;;;;;;1999.90;999.90;;;7.80;99.90;;;;;;5095846;28;20620;-44
2021/07/21 01:15:21;;;;;;;1999.90;999.90;;;7.70;99.90;;;;;;5095514;28;20224;-44
2021/07/21 01:18:02;;;;;;;1999.90;999.90;;;7.70;99.90;;;;;;5095743;28;20173;-44
2021/07/21 01:21:05;;;;;;;1999.90;999.90;;;7.60;99.90;;;;;;5095934;28;20515;-44
2021/07/21 01:24:10;;;;;;;1999.90;999.90;;;7.60;99.90;;;;;;5095534;28;20221;-44
2021/07/21 01:26:49;;;;;;;1999.90;999.90;;;7.60;99.90;;;;;;5094699;28;20644;-44
2021/07/21 01:29:24;;;;;;;1999.90;999.90;;;7.50;99.90;;;;;;5095681;28;20199;-44
2021/07/21 01:31:55;;;;;;;1999.90;999.90;;;7.50;99.90;;;;;;5095505;28;20159;-44
2021/07/21 01:34:26;;;;;;;1999.90;999.90;;;7.70;99.90;;;;;;5095406;28;20167;-44
2021/07/21 01:36:55;;;;;;;1999.90;999.90;;;7.70;99.90;;;;;;5095169;28;20632;-44
2021/07/21 01:39:28;;;;;;;1999.90;999.90;;;7.70;99.90;;;;;;5095324;28;20628;-44
2021/07/21 01:42:00;;;;;;;1999.90;999.90;;;7.70;99.90;;;;;;5095286;28;20215;-44
2021/07/21 01:44:30;;;;;;;1999.90;999.90;;;7.70;99.90;;;;;;5095513;28;20186;-44
2021/07/21 01:47:00;;;;;;;1999.90;999.90;;;7.80;99.90;;;;;;5095203;28;20179;-44
2021/07/21 01:49:30;;;;;;;1999.90;999.90;;;7.80;99.90;;;;;;5095025;28;20202;-44
2021/07/21 01:51:58;;;;;;;1999.90;999.90;;;7.80;99.90;;;;;;5095097;28;20643;-44
2021/07/21 01:54:26;;;;;;;1999.90;999.90;;;7.80;99.90;;;;;;5094863;28;20175;-44
2021/07/21 01:56:54;;;;;;;1999.90;999.90;;;7.70;99.90;;;;;;5095014;28;20171;-44
2021/07/21 01:59:23;;;;;;;1999.90;999.90;;;7.80;99.90;;;;;;5094887;28;20220;-44
2021/07/21 02:01:50;;;;;;;1999.90;999.90;;;7.80;99.90;;;;;;5094909;28;20166;-45
2021/07/21 02:04:17;;;;;;;1999.90;999.90;;;7.80;99.90;;;;;;5094880;28;20246;-48
2021/07/21 02:06:44;;;;;;;1999.90;999.90;;;7.80;99.90;;;;;;5094774;28;20171;-46
2021/07/21 02:09:11;;;;;;;1999.90;999.90;;;7.80;99.90;;;;;;5094643;28;20206;-44
2021/07/21 02:11:41;;;;;;;1999.90;999.90;;;7.90;99.90;;;;;;5094671;28;20174;-44
2021/07/21 02:14:11;;;;;;;1999.90;999.90;;;7.90;99.90;;;;;;5094668;28;20163;-44
2021/07/21 02:16:40;;;;;;;1999.90;999.90;;;7.90;99.90;;;;;;5094341;28;20228;-44
2021/07/21 02:19:08;;;;;;;1999.90;999.90;;;7.90;99.90;;;;;;5094571;28;20583;-44
2021/07/21 02:21:40;;;;;;;1999.90;999.90;;;7.80;99.90;;;;;;5094584;28;20175;-44
2021/07/21 02:24:09;;;;;;;1999.90;999.90;;;7.80;99.90;;;;;;5094329;28;20554;-43
2021/07/21 02:26:41;;;;;;;1999.90;999.90;;;7.90;99.90;;;;;;5094384;28;20175;-44
2021/07/21 02:29:09;;;;;;;1999.90;999.90;;;7.90;99.90;;;;;;5094237;28;20750;-43
2021/07/21 02:31:45;;;;;;;1999.90;999.90;;;7.90;99.90;;;;;;5094436;28;20164;-44
2021/07/21 02:34:12;;;;;;;1999.90;999.90;;;7.90;99.90;;;;;;5094241;28;20155;-44
2021/07/21 02:36:40;;;;;;;1999.90;999.90;;;7.90;99.90;;;;;;5094155;28;20174;-43
2021/07/21 02:39:08;;;;;;;1999.90;999.90;;;8.00;99.90;;;;;;5094022;28;20190;-43
2021/07/21 02:41:37;;;;;;;1999.90;999.90;;;8.00;99.90;;;;;;5094350;28;20167;-44
2021/07/21 02:44:05;;;;;;;1999.90;999.90;;;8.10;99.90;;;;;;5094187;28;20163;-44
2021/07/21 02:46:32;;;;;;;1999.90;999.90;;;8.00;99.90;;;;;;5093946;28;20229;-43
2021/07/21 02:49:00;;;;;;;1999.90;999.90;;;8.00;99.90;;;;;;5093679;28;20592;-44
2021/07/21 02:51:55;;;;;;;1999.90;999.90;;;8.00;99.90;;;;;;5093932;28;20171;-44
2021/07/21 02:54:24;;;;;;;1999.90;999.90;;;8.00;99.90;;;;;;5093918;28;20163;-44
2021/07/21 02:56:59;;;;;;;1999.90;999.90;;;8.00;99.90;;;;;;5093745;28;20207;-44
2021/07/21 02:59:40;;;;;;;1999.90;999.90;;;8.00;99.90;;;;;;5093823;28;20567;-44
2021/07/21 03:02:09;;;;;;;1999.90;999.90;;;8.00;99.90;;;;;;5092745;28;20159;-43
2021/07/21 03:04:38;;;;;;;1999.90;999.90;;;8.00;99.90;;;;;;5093819;28;20208;-44
2021/07/21 03:07:07;;;;;;;1999.90;999.90;;;8.00;99.90;;;;;;5093705;28;20187;-44
2021/07/21 03:09:35;;;;;;;1999.90;999.90;;;8.00;99.90;;;;;;5093531;28;20290;-44
2021/07/21 03:12:05;;;;;;;1999.90;999.90;;;8.10;99.90;;;;;;5093662;28;20159;-43
2021/07/21 03:14:36;;;;;;;1999.90;999.90;;;8.10;99.90;;;;;;5093439;28;20170;-44
2021/07/21 03:17:05;;;;;;;1999.90;999.90;;;8.10;99.90;;;;;;5093309;28;20226;-43
2021/07/21 03:19:33;;;;;;;1999.90;999.90;;;8.00;99.90;;;;;;5093358;28;20505;-43
2021/07/21 03:22:00;;;;;;;1999.90;999.90;;;8.10;99.90;;;;;;5093215;28;20179;-43
2021/07/21 03:24:28;;;;;;;1999.90;999.90;;;8.10;99.90;;;;;;5093384;28;20177;-44
2021/07/21 03:26:56;;;;;;;1999.90;999.90;;;8.00;99.90;;;;;;5093208;28;20175;-43
2021/07/21 03:29:24;;;;;;;1999.90;999.90;;;8.10;99.90;;;;;;5093247;28;20202;-44
2021/07/21 03:31:52;;;;;;;1999.90;999.90;;;8.00;99.90;;;;;;5093214;28;20516;-44
2021/07/21 03:34:22;;;;;;;1999.90;999.90;;;8.10;99.90;;;;;;5093191;28;20171;-44
2021/07/21 03:36:52;;;;;;;1999.90;999.90;;;8.10;99.90;;;;;;5093129;28;20213;-44
2021/07/21 03:39:20;;;;;;;1999.90;999.90;;;8.10;99.90;;;;;;5093141;28;20258;-45
2021/07/21 03:41:49;;;;;;;1999.90;999.90;;;8.10;99.90;;;;;;5093084;28;20163;-44
2021/07/21 03:44:21;;;;;;;1999.90;999.90;;;8.10;99.90;;;;;;5093054;28;20296;-44
2021/07/21 03:46:48;;;;;;;1999.90;999.90;;;8.10;99.90;;;;;;5093151;28;20160;-43
2021/07/21 03:49:18;;;;;;;1999.90;999.90;;;8.10;99.90;;;;;;5092865;28;20261;-44
2021/07/21 03:51:46;;;;;;;1999.90;999.90;;;8.20;99.90;;;;;;5093244;28;20182;-44
2021/07/21 03:54:16;;;;;;;1999.90;999.90;;;8.20;99.90;;;;;;5092803;28;20260;-44
2021/07/21 03:56:44;;;;;;;1999.90;999.90;;;8.20;99.90;;;;;;5092932;28;20179;-44
2021/07/21 03:59:16;;;;;;;1999.90;999.90;;;8.20;99.90;;;;;;5093766;28;20229;-44
2021/07/21 04:01:45;;;;;;;1999.90;999.90;;;8.20;99.90;;;;;;5097221;28;20238;-45
2021/07/21 04:04:15;;;;;;;1999.90;999.90;;;8.20;99.90;;;;;;5097180;28;20586;-44
2021/07/21 04:06:42;;;;;;;1999.90;999.90;;;8.20;99.90;;;;;;5097544;28;20191;-44
2021/07/21 04:09:14;;;;;;;1999.90;999.90;;;8.20;99.90;;;;;;5097028;28;20211;-44
2021/07/21 04:11:42;;;;;;;1999.90;999.90;;;8.20;99.90;;;;;;5096916;28;20167;-43
2021/07/21 04:14:11;;;;;;;1999.90;999.90;;;8.20;99.90;;;;;;5096908;28;20213;-44
2021/07/21 04:16:38;;;;;;;1999.90;999.90;;;8.20;99.90;;;;;;5096569;28;20223;-43
2021/07/21 04:19:09;;;;;;;1999.90;999.90;;;8.10;99.90;;;;;;5096795;28;20632;-43
2021/07/21 04:21:38;;;;;;;1999.90;999.90;;;8.10;99.90;;;;;;5096741;28;20262;-43
2021/07/21 04:24:05;;;;;;;1999.90;999.90;;;8.00;99.90;;;;;;5096771;28;20257;-44
2021/07/21 04:26:32;;;;;;;1999.90;999.90;;;7.90;99.90;;;;;;5096616;28;20262;-44
2021/07/21 04:29:00;;;;;;;1999.90;999.90;;;7.90;99.90;;;;;;5096839;28;20217;-43
2021/07/21 04:31:27;;;;;;;1999.90;999.90;;;7.90;99.90;;;;;;5096685;28;20174;-44
2021/07/21 04:33:56;;;;;;;1999.90;999.90;;;7.80;99.90;;;;;;5096421;28;20175;-44
2021/07/21 04:36:23;;;;;;;1999.90;999.90;;;7.80;99.90;;;;;;5096434;28;20173;-43
2021/07/21 04:38:51;;;;;;;1999.90;999.90;;;7.90;99.90;;;;;;5096439;28;20194;-44
2021/07/21 04:41:22;;;;;;;1999.90;999.90;;;8.00;99.90;;;;;;5096403;28;20203;-44
2021/07/21 04:43:50;;;;;;;1999.90;999.90;;;8.00;99.90;;;;;;5096422;28;20239;-44
2021/07/21 04:46:18;;;;;;;1999.90;999.90;;;8.10;99.90;;;;;;5096280;28;20175;-43
2021/07/21 04:48:46;;;;;;;1999.90;999.90;;;8.10;99.90;;;;;;5096231;28;20210;-44
2021/07/21 04:51:17;;;;;;;1999.90;999.90;;;8.20;99.90;;;;;;5096320;28;20539;-44
2021/07/21 04:53:44;;;;;;;1999.90;999.90;;;8.20;99.90;;;;;;5096321;28;20239;-44
2021/07/21 04:56:11;;;;;;;1999.90;999.90;;;8.20;99.90;;;;;;5094825;28;20236;-43
2021/07/21 04:58:38;;;;;;;1999.90;999.90;;;8.20;99.90;;;;;;5096097;28;20195;-44
2021/07/21 05:01:05;;;;;;;1999.90;999.90;;;8.30;99.90;;;;;;5096013;28;20693;-44
2021/07/21 05:03:33;;;;;;;1999.90;999.90;;;8.30;99.90;;;;;;5095976;28;20174;-43
2021/07/21 05:06:00;;;;;;;1999.90;999.90;;;8.30;99.90;;;;;;5095931;28;20674;-43
2021/07/21 05:08:27;;;;;;;1999.90;999.90;;;8.30;99.90;;;;;;5095861;28;20284;-43
2021/07/21 05:10:54;;;;;;;1999.90;999.90;;;8.40;99.90;;;;;;5095677;28;20298;-43
2021/07/21 05:13:21;;;;;;;1999.90;999.90;;;8.40;99.90;;;;;;5095831;28;20198;-43
2021/07/21 05:15:49;;;;;;;1999.90;999.90;;;8.40;99.90;;;;;;5095754;28;20291;-45
2021/07/21 05:18:16;;;;;;;1999.90;999.90;;;8.40;99.90;;;;;;5095820;28;20261;-43
2021/07/21 05:20:44;;;;;;;1999.90;999.90;;;8.40;99.90;;;;;;5095647;28;20172;-45
2021/07/21 05:23:11;;;;;;;1999.90;999.90;;;8.40;99.90;;;;;;5095592;28;20178;-43
2021/07/21 05:25:39;;;;;;;1999.90;999.90;;;8.40;99.90;;;;;;5095544;28;20672;-43
2021/07/21 05:28:07;;;;;;;1999.90;999.90;;;8.40;99.90;;;;;;5095401;28;20248;-43
2021/07/21 05:30:36;;;;;;;1999.90;999.90;;;8.40;99.90;;;;;;5095300;28;20167;-44
2021/07/21 05:33:03;;;;;;;1999.90;999.90;;;8.40;99.90;;;;;;5095316;28;20170;-44
2021/07/21 05:35:30;;;;;;;1999.90;999.90;;;8.30;99.90;;;;;;5095169;28;20171;-45
2021/07/21 05:37:57;;;;;;;1999.90;999.90;;;8.40;99.90;;;;;;5095118;28;20218;-43
2021/07/21 05:40:24;;;;;;;1999.90;999.90;;;8.30;99.90;;;;;;5095045;28;20175;-50
2021/07/21 05:42:51;;;;;;;1999.90;999.90;;;8.30;99.90;;;;;;5095176;28;20628;-46
2021/07/21 05:45:18;;;;;;;1999.90;999.90;;;8.30;99.90;;;;;;5095118;28;20168;-45
2021/07/21 05:47:45;;;;;;;1999.90;999.90;;;8.30;99.90;;;;;;5094916;28;20167;-43
2021/07/21 05:50:12;;;;;;;1999.90;999.90;;;8.30;99.90;;;;;;5094845;28;20689;-44
2021/07/21 05:52:38;;;;;;;1999.90;999.90;;;8.20;99.90;;;;;;5094926;28;20261;-46
2021/07/21 05:55:06;;;;;;;1999.90;999.90;;;8.20;99.90;;;;;;5094921;28;20201;-48
2021/07/21 05:57:33;;;;;;;1999.90;999.90;;;8.20;99.90;;;;;;5094780;28;20549;-44
2021/07/21 06:00:00;;;;;;;1999.90;999.90;;;8.10;99.90;;;;;;5094809;28;20167;-46
2021/07/21 06:02:27;;;;;;;1999.90;999.90;;;8.10;99.90;;;;;;5094573;28;20638;-44
2021/07/21 06:04:54;;;;;;;1999.90;999.90;;;8.10;99.90;;;;;;5094614;28;20171;-43
2021/07/21 06:07:21;;;;;;;1999.90;999.90;;;8.10;99.90;;;;;;5094747;28;20191;-45
2021/07/21 06:09:48;;;;;;;1999.90;999.90;;;8.10;99.90;;;;;;5093859;28;20854;-43
2021/07/21 06:12:15;;;;;;;1999.90;999.90;;;8.20;99.90;;;;;;5093868;28;20680;-43
2021/07/21 06:14:42;;;;;;;1999.90;999.90;;;8.20;99.90;;;;;;5094341;28;20253;-44
2021/07/21 06:17:08;;;;;;;1999.90;999.90;;;8.20;99.90;;;;;;5094339;28;20223;-44
2021/07/21 06:19:35;;;;;;;1999.90;999.90;;;8.20;99.90;;;;;;5094302;28;20179;-42
2021/07/21 06:22:04;;;;;;;1999.90;999.90;;;8.20;99.90;;;;;;5093600;28;20515;-58
2021/07/21 06:24:31;;;;;;;1999.90;999.90;;;8.10;99.90;;;;;;5094182;28;20215;-56
2021/07/21 06:26:59;;;;;;;1999.90;999.90;;;8.50;99.90;;;;;;5093992;28;20267;-44
2021/07/21 06:29:26;;;;;;;1999.90;999.90;;;8.70;99.90;;;;;;5093797;28;20214;-49
2021/07/21 06:31:53;;;;;;;1999.90;999.90;;;8.50;99.90;;;;;;5093077;28;20178;-45
2021/07/21 06:34:20;;;;;;;1999.90;999.90;;;8.50;99.90;;;;;;5091945;28;20168;-45
2021/07/21 06:36:47;;;;;;;1999.90;999.90;;;8.50;99.90;;;;;;5092813;28;20167;-44
2021/07/21 06:39:14;;;;;;;1999.90;999.90;;;8.50;99.90;;;;;;5092813;28;20175;-43
2021/07/21 06:41:40;;;;;;;1999.90;999.90;;;8.50;99.90;;;;;;5092823;28;20174;-44
2021/07/21 06:44:07;;;;;;;1999.90;999.90;;;8.60;99.90;;;;;;5092858;28;20160;-44
2021/07/21 06:46:34;;;;;;;1999.90;999.90;;;8.50;99.90;;;;;;5093064;28;20265;-53
2021/07/21 06:49:01;;;;;;;1999.90;999.90;;;8.60;99.90;;;;;;5092689;28;20233;-45
2021/07/21 06:51:28;;;;;;;1999.90;999.90;;;8.60;99.90;;;;;;5093075;28;20163;-46
2021/07/21 06:53:54;;;;;;;1999.90;999.90;;;8.60;99.90;;;;;;5092967;28;20217;-47
2021/07/21 06:56:21;;;;;;;1999.90;999.90;;;8.80;99.90;;;;;;5093430;28;20163;-46
2021/07/21 06:58:50;;;;;;;1999.90;999.90;;;8.90;99.90;;;;;;5093186;28;20175;-45
2021/07/21 07:01:19;;;;;;;1999.90;999.90;;;8.80;99.90;;;;;;5092928;28;20629;-47
2021/07/21 07:03:47;;;;;;;1999.90;999.90;;;8.70;99.90;;;;;;5093023;28;20286;-46
2021/07/21 07:06:14;;;;;;;1999.90;999.90;;;8.70;99.90;;;;;;5093160;28;20178;-47
2021/07/21 07:08:41;;;;;;;1999.90;999.90;;;8.70;99.90;;;;;;5092719;28;20679;-44
2021/07/21 07:11:09;;;;;;;1999.90;999.90;;;8.70;99.90;;;;;;5092984;28;20175;-47
2021/07/21 07:13:37;;;;;;;1999.90;999.90;;;8.60;99.90;;;;;;5092786;28;20638;-46
2021/07/21 07:16:04;;;;;;;1999.90;999.90;;;8.60;99.90;;;;;;5092902;28;20235;-46
2021/07/21 07:18:32;;;;;;;1999.90;999.90;;;8.60;99.90;;;;;;5092745;28;20166;-45
2021/07/21 07:20:59;;;;;;;1999.90;999.90;;;8.50;99.90;;;;;;5092814;28;20190;-44
2021/07/21 07:23:29;;;;;;;1999.90;999.90;;;8.50;99.90;;;;;;5092851;28;20241;-45
2021/07/21 07:25:56;;;;;;;1999.90;999.90;;;8.60;99.90;;;;;;5090439;28;20178;-45
2021/07/21 07:28:23;;;;;;;1999.90;999.90;;;8.70;99.90;;;;;;5091319;28;20223;-46
2021/07/21 07:30:50;;;;;;;1999.90;999.90;;;8.60;99.90;;;;;;5091476;28;20169;-47
2021/07/21 07:33:16;;;;;;;1999.90;999.90;;;8.90;99.90;;;;;;5091419;28;20189;-45
2021/07/21 07:35:43;;;;;;;1999.90;999.90;;;8.80;99.90;;;;;;5091339;28;20174;-48
2021/07/21 07:38:11;;;;;;;1999.90;999.90;;;8.90;99.90;;;;;;5091392;28;20241;-46
2021/07/21 07:40:41;;;;;;;1999.90;999.90;;;9.10;99.90;;;;;;5091707;28;20179;-45
2021/07/21 07:43:08;;;;;;;1999.90;999.90;;;9.00;99.90;;;;;;5090299;28;20182;-46
2021/07/21 07:45:36;;;;;;;1999.90;999.90;;;8.80;99.90;;;;;;5092393;28;20206;-46
2021/07/21 07:48:03;;;;;;;1999.90;999.90;;;8.70;99.90;;;;;;5092332;28;20199;-45
2021/07/21 07:50:30;;;;;;;1999.90;999.90;;;8.60;99.90;;;;;;5092334;28;20637;-48
2021/07/21 07:52:57;;;;;;;1999.90;999.90;;;8.60;99.90;;;;;;5092668;28;20274;-44
2021/07/21 07:55:24;;;;;;;1999.90;999.90;;;8.50;99.90;;;;;;5090814;28;20675;-45
2021/07/21 07:57:51;;;;;;;1999.90;999.90;;;8.60;99.90;;;;;;5091728;28;20175;-45
2021/07/21 08:00:19;;;;;;;1999.90;999.90;;;8.60;99.90;;;;;;5091548;28;20171;-46
2021/07/21 08:02:46;;;;;;;1999.90;999.90;;;8.60;99.90;;;;;;5091596;28;20223;-45
2021/07/21 08:05:13;;;;;;;1999.90;999.90;;;8.60;99.90;;;;;;5091671;28;20189;-44
2021/07/21 08:07:40;;;;;;;1999.90;999.90;;;8.70;99.90;;;;;;5091399;28;20636;-52
2021/07/21 08:10:13;;;;;;;1999.90;999.90;;;8.80;99.90;;;;;;5090341;28;20234;-46
2021/07/21 08:12:42;;;;;;;1999.90;999.90;;;9.40;99.90;;;;;;5089324;28;20182;-47
2021/07/21 08:15:12;;;;;;;1999.90;999.90;;;9.20;99.90;;;;;;5091517;28;20276;-47
2021/07/21 08:17:40;;;;;;;1999.90;999.90;;;9.10;99.90;;;;;;5089474;28;20172;-58
2021/07/21 08:20:08;;;;;;;1999.90;999.90;;;9.20;99.90;;;;;;5091822;28;20164;-44
2021/07/21 08:22:41;;;;;;;1999.90;999.90;;;9.50;99.90;;;;;;5091750;28;20534;-45
2021/07/21 08:25:14;;;;;;;1999.90;999.90;;;9.50;99.90;;;;;;5092144;28;20282;-47
2021/07/21 08:27:41;;;;;;;1999.90;999.90;;;9.20;99.90;;;;;;5091914;28;20236;-46
2021/07/21 08:30:12;;;;;;;1999.90;999.90;;;9.10;99.90;;;;;;5092071;28;20186;-46
2021/07/21 08:32:50;;;;;;;1999.90;999.90;;;9.80;99.90;;;;;;5091880;28;20724;-45
2021/07/21 08:35:21;;;;;;;1999.90;999.90;;;9.40;99.90;;;;;;5092187;28;20615;-46
2021/07/21 08:37:47;;;;;;;1999.90;999.90;;;9.10;99.90;;;;;;5092070;28;20163;-53
2021/07/21 08:40:16;;;;;;;1999.90;999.90;;;9.20;99.90;;;;;;5091796;28;20168;-44
2021/07/21 08:42:43;;;;;;;1999.90;999.90;;;9.70;99.90;;;;;;5092171;28;20175;-43
2021/07/21 08:45:10;;;;;;;1999.90;999.90;;;9.30;99.90;;;;;;5092390;28;20625;-45
2021/07/21 08:47:37;;;;;;;1999.90;999.90;;;9.20;99.90;;;;;;5095621;28;20544;-44
2021/07/21 08:50:06;;;;;;;1999.90;999.90;;;9.00;99.90;;;;;;5094098;28;20534;-43
2021/07/21 08:52:33;;;;;;;1999.90;999.90;;;9.80;99.90;;;;;;5095895;28;20173;-50
2021/07/21 08:55:03;;;;;;;1999.90;999.90;;;9.60;99.90;;;;;;5095384;28;20325;-46
2021/07/21 08:57:32;;;;;;;1999.90;999.90;;;9.30;99.90;;;;;;5095391;28;20586;-47
2021/07/21 09:00:00;;;;;;;1999.90;999.90;;;9.20;99.90;;;;;;5095496;28;20194;-45
2021/07/21 09:02:27;;;;;;;1999.90;999.90;;;9.10;99.90;;;;;;5095140;28;20196;-44
2021/07/21 09:04:54;;;;;;;1999.90;999.90;;;9.00;99.90;;;;;;5095332;28;20220;-45
2021/07/21 09:07:21;;;;;;;1999.90;999.90;;;9.00;99.90;;;;;;5095206;28;20700;-45
2021/07/21 09:09:48;;;;;;;1999.90;999.90;;;9.00;99.90;;;;;;5095000;28;20301;-45
2021/07/21 09:12:16;;;;;;;1999.90;999.90;;;9.10;99.90;;;;;;5094991;28;20186;-45
2021/07/21 09:14:44;;;;;;;1999.90;999.90;;;9.10;99.90;;;;;;5095180;28;20652;-53
2021/07/21 09:17:13;;;;;;;1999.90;999.90;;;9.30;99.90;;;;;;5094830;28;20347;-47
2021/07/21 09:19:45;;;;;;;1999.90;999.90;;;9.50;99.90;;;;;;5094829;28;20185;-45
2021/07/21 09:22:38;;;;;;;1999.90;999.90;;;9.70;99.90;;;;;;5094800;28;20532;-49
2021/07/21 09:25:24;;;;;;;1999.90;999.90;;;9.60;99.90;;;;;;5094741;28;20171;-45
2021/07/21 09:27:55;;;;;;;1999.90;999.90;;;9.70;99.90;;;;;;5094369;28;20155;-48
2021/07/21 09:30:30;;;;;;;1999.90;999.90;;;9.90;99.90;;;;;;5094795;28;20171;-46
2021/07/21 09:33:08;;;;;;;1999.90;999.90;;;10.00;99.90;;;;;;5094470;28;20253;-46
2021/07/21 09:35:35;;;;;;;1999.90;999.90;;;10.00;99.90;;;;;;5094710;28;20199;-45
2021/07/21 09:38:06;;;;;;;1999.90;999.90;;;10.10;99.90;;;;;;5094575;28;20183;-46
2021/07/21 09:40:34;;;;;;;1999.90;999.90;;;10.20;99.90;;;;;;5094962;28;20614;-46
2021/07/21 09:43:01;;;;;;;1999.90;999.90;;;10.40;99.90;;;;;;5094443;28;20187;-47
2021/07/21 09:45:36;;;;;;;1999.90;999.90;;;10.70;99.90;;;;;;5095101;28;20285;-48
2021/07/21 09:48:02;;;;;;;1999.90;999.90;;;10.90;99.90;;;;;;5094368;28;20198;-50
2021/07/21 09:50:30;;;;;;;1999.90;999.90;;;11.10;99.90;;;;;;5094418;28;20168;-45
2021/07/21 09:53:04;;;;;;;1999.90;999.90;;;11.50;99.90;;;;;;5094468;28;20205;-47
2021/07/21 09:55:33;;;;;;;1999.90;999.90;;;11.40;99.90;;;;;;5094376;28;20191;-47
2021/07/21 09:58:08;;;;;;;1999.90;999.90;;;11.40;99.90;;;;;;5092923;28;20172;-46
2021/07/21 10:00:40;;;;;;;1999.90;999.90;;;11.50;99.90;;;;;;5094328;28;20254;-46
2021/07/21 10:03:14;;;;;;;1999.90;999.90;;;11.60;99.90;;;;;;5094438;28;20530;-46
2021/07/21 10:06:02;;;;;;;1999.90;999.90;;;11.60;99.90;;;;;;5094478;28;20200;-47
2021/07/21 10:08:52;;;;;;;1999.90;999.90;;;11.70;99.90;;;;;;5094142;28;20188;-48
2021/07/21 10:11:28;;;;;;;1999.90;999.90;;;11.50;99.90;;;;;;5093931;28;20247;-45
2021/07/21 10:14:04;;;;;;;1999.90;999.90;;;11.50;99.90;;;;;;5094159;28;20152;-45
2021/07/21 10:16:32;;;;;;;1999.90;999.90;;;11.70;99.90;;;;;;5093854;28;20219;-46
2021/07/21 10:19:10;;;;;;;1999.90;999.90;;;11.80;99.90;;;;;;5094148;28;20645;-44
2021/07/21 10:21:39;;;;;;;1999.90;999.90;;;11.50;99.90;;;;;;5094214;28;20175;-47
2021/07/21 10:24:07;;;;;;;1999.90;999.90;;;11.20;99.90;;;;;;5094216;28;20187;-45
2021/07/21 10:26:35;;;;;;;1999.90;999.90;;;10.90;99.90;;;;;;5093806;28;20221;-45
2021/07/21 10:29:02;;;;;;;1999.90;999.90;;;10.70;99.90;;;;;;5093587;28;20219;-44
2021/07/21 10:31:29;;;;;;;1999.90;999.90;;;10.50;99.90;;;;;;5093314;28;20180;-45
2021/07/21 10:33:56;;;;;;;1999.90;999.90;;;10.50;99.90;;;;;;5093168;28;20652;-46
2021/07/21 10:36:23;;;;;;;1999.90;999.90;;;10.40;99.90;;;;;;5093217;28;20204;-47
2021/07/21 10:38:50;;;;;;;1999.90;999.90;;;10.50;99.90;;;;;;5092988;28;20203;-45
2021/07/21 10:41:18;;;;;;;1999.90;999.90;;;10.60;99.90;;;;;;5092981;28;20625;-46
2021/07/21 10:43:53;;;;;;;1999.90;999.90;;;10.70;99.90;;;;;;5092625;28;20176;-46
2021/07/21 10:46:44;;;;;;;1999.90;999.90;;;10.80;99.90;;;;;;5090224;28;20178;-50
2021/07/21 10:54:59;;;;;;;1999.90;999.90;;;11.30;99.90;;;;;;5090633;28;20228;-48
2021/07/21 11:00:28;;;;;;;1999.90;999.90;;;11.90;99.90;;;;;;5092442;28;20167;-47
2021/07/21 11:03:15;;;;;;;1999.90;999.90;;;12.10;99.90;;;;;;5092462;28;20653;-46
2021/07/21 11:05:50;;;;;;;1999.90;999.90;;;12.30;99.90;;;;;;5089786;28;20161;-45
2021/07/21 11:08:19;;;;;;;1999.90;999.90;;;12.60;99.90;;;;;;5092248;28;20179;-44
2021/07/21 11:10:48;;;;;;;1999.90;999.90;;;12.80;99.90;;;;;;5092198;28;20172;-46
2021/07/21 11:13:36;;;;;;;1999.90;999.90;;;12.90;99.90;;;;;;5092431;28;20160;-46
2021/07/21 11:16:05;;;;;;;1999.90;999.90;;;12.80;99.90;;;;;;5090288;28;20207;-47
2021/07/21 11:18:43;;;;;;;1999.90;999.90;;;12.60;99.90;;;;;;5089841;28;20164;-47
2021/07/21 11:21:13;;;;;;;1999.90;999.90;;;12.30;99.90;;;;;;5089821;28;20533;-47
2021/07/21 11:23:55;;;;;;;1999.90;999.90;;;12.10;99.90;;;;;;5092314;28;20163;-45
2021/07/21 11:26:39;;;;;;;1999.90;999.90;;;12.10;99.90;;;;;;5091203;28;20172;-52
2021/07/21 11:29:30;;;;;;;1999.90;999.90;;;12.20;99.90;;;;;;5091604;28;20254;-46
2021/07/21 11:31:57;;;;;;;1999.90;999.90;;;12.40;99.90;;;;;;5090208;28;20159;-51
2021/07/21 11:34:38;;;;;;;1999.90;999.90;;;12.50;99.90;;;;;;5091939;28;20638;-46
2021/07/21 11:37:28;;;;;;;1999.90;999.90;;;12.30;99.90;;;;;;5091946;28;20160;-45
2021/07/21 11:40:13;;;;;;;1999.90;999.90;;;11.90;99.90;;;;;;5090110;28;20164;-45
2021/07/21 11:42:40;;;;;;;1999.90;999.90;;;11.90;99.90;;;;;;5090327;28;20518;-53
2021/07/21 11:45:11;;;;;;;1999.90;999.90;;;11.90;99.90;;;;;;5090271;28;20176;-47
2021/07/21 11:47:40;;;;;;;1999.90;999.90;;;12.10;99.90;;;;;;5092014;28;20247;-47
2021/07/21 11:50:21;;;;;;;1999.90;999.90;;;12.30;99.90;;;;;;5091596;28;20190;-48
2021/07/21 11:53:10;;;;;;;1999.90;999.90;;;12.50;99.90;;;;;;5091613;28;20549;-46
2021/07/21 11:55:38;;;;;;;1999.90;999.90;;;12.80;99.90;;;;;;5089826;28;20511;-61
2021/07/21 11:58:12;;;;;;;1999.90;999.90;;;13.30;99.90;;;;;;5091729;28;20175;-55
2021/07/21 12:00:39;;;;;;;1999.90;999.90;;;14.00;99.90;;;;;;5092268;28;20494;-47
2021/07/21 12:03:06;;;;;;;1999.90;999.90;;;13.70;99.90;;;;;;5092254;28;20286;-49
2021/07/21 12:05:33;;;;;;;1999.90;999.90;;;13.20;99.90;;;;;;5092519;28;20172;-47
2021/07/21 12:08:06;;;;;;;1999.90;999.90;;;12.90;99.90;;;;;;5092487;28;20163;-47
2021/07/21 12:10:34;;;;;;;1999.90;999.90;;;12.70;99.90;;;;;;5092281;28;20167;-43
2021/07/21 12:13:09;;;;;;;1999.90;999.90;;;12.50;99.90;;;;;;5092346;28;20511;-47
2021/07/21 12:15:36;;;;;;;1999.90;999.90;;;12.30;99.90;;;;;;5092236;28;20215;-45
2021/07/21 12:18:10;;;;;;;1999.90;999.90;;;12.20;99.90;;;;;;5092293;28;20191;-45
2021/07/21 12:20:38;;;;;;;1999.90;999.90;;;12.20;99.90;;;;;;5093678;28;20172;-46
2021/07/21 12:23:05;;;;;;;1999.90;999.90;;;12.40;99.90;;;;;;5095218;28;20168;-48
2021/07/21 12:25:33;;;;;;;1999.90;999.90;;;12.50;99.90;;;;;;5096555;28;20199;-46
2021/07/21 12:28:00;;;;;;;1999.90;999.90;;;12.70;99.90;;;;;;5095940;28;20186;-46
2021/07/21 12:30:31;;;;;;;1999.90;999.90;;;12.80;99.90;;;;;;5096231;28;20228;-46